createdAt,value
2022-10-13T05:25:08.942Z,16.70
2022-10-13T05:35:10.313Z,17.70
2022-10-13T05:45:11.686Z,18.30
2022-10-13T05:55:13.067Z,18.60
2022-10-13T06:05:14.434Z,18.70
2022-10-13T06:15:15.798Z,18.90
2022-10-13T06:25:17.158Z,19.00
2022-10-13T06:35:18.526Z,19.00
2022-10-13T06:45:19.916Z,19.00
2022-10-13T06:55:21.289Z,19.00
2022-10-13T07:05:22.660Z,19.10
2022-10-13T07:15:24.043Z,19.20
2022-10-13T07:25:25.407Z,20.50
2022-10-13T07:35:30.446Z,21.60
2022-10-13T07:45:32.333Z,21.80
2022-10-13T07:55:33.699Z,22.20
2022-10-13T08:05:35.073Z,22.30
2022-10-13T08:15:36.439Z,22.30
2022-10-13T08:25:37.815Z,25.40
2022-10-13T08:35:39.207Z,25.40
2022-10-13T08:45:42.023Z,25.10
2022-10-13T08:55:43.772Z,25.10
2022-10-13T09:05:45.152Z,25.10
2022-10-13T09:15:46.556Z,25.40
2022-10-13T09:25:47.931Z,25.40
2022-10-13T09:35:49.317Z,25.40
2022-10-13T09:45:50.693Z,25.60
2022-10-13T09:55:52.073Z,25.60
2022-10-13T10:05:53.435Z,25.40
2022-10-13T10:15:54.819Z,25.60
2022-10-13T10:25:56.210Z,25.20
2022-10-13T10:35:57.594Z,25.50
2022-10-13T10:45:58.954Z,25.60
2022-10-13T10:56:00.330Z,25.50
2022-10-13T11:06:01.724Z,25.50
2022-10-13T11:16:03.109Z,25.50
2022-10-13T11:26:04.519Z,22.70
2022-10-13T11:36:05.921Z,21.50
2022-10-13T11:46:07.314Z,21.70
2022-10-13T11:56:08.714Z,21.50
2022-10-13T12:06:10.090Z,21.60
2022-10-13T12:16:11.475Z,21.70
2022-10-13T12:26:12.861Z,21.80
2022-10-13T12:36:14.264Z,21.80
2022-10-13T12:46:15.709Z,21.80
2022-10-13T12:56:17.083Z,21.90
2022-10-13T13:06:18.469Z,21.90
2022-10-13T13:16:19.883Z,21.90
2022-10-13T13:26:21.306Z,21.90
2022-10-13T13:36:22.692Z,21.90
2022-10-13T13:46:24.072Z,22.10
2022-10-13T13:56:25.507Z,24.80
2022-10-13T14:06:26.985Z,25.30
2022-10-13T14:16:28.554Z,25.30
2022-10-13T14:26:30.460Z,24.90
2022-10-13T14:36:31.848Z,24.80
2022-10-13T14:46:33.218Z,24.60
2022-10-13T14:56:34.616Z,24.50
2022-10-13T15:06:36.008Z,24.80
2022-10-13T15:16:37.371Z,24.80
2022-10-13T15:26:38.763Z,24.60
2022-10-13T15:36:40.177Z,24.50
2022-10-13T15:46:53.901Z,24.60
2022-10-13T15:57:02.950Z,24.50
2022-10-13T16:07:07.447Z,24.60
2022-10-13T16:17:13.345Z,24.40
2022-10-13T16:27:14.720Z,24.40
2022-10-13T16:37:16.084Z,24.20
2022-10-13T16:47:18.576Z,23.90
2022-10-13T16:57:20.348Z,24.00
2022-10-13T17:07:22.449Z,23.80
